Etusivu
METAR-TAF:

METAR-TAF

Lentoasemat :

Petropavlovsk-Kamtšatski, Venäjä

Leveyspiiri: 53-05N, Pituuspiiri: 158-35E, korkeus merenpinnasta: 24 m

Tämänhetkinen sää

Tämä raportti tehtiin 22 minuuttia sitten, kello 18.30 UTC
Tuuli 10 kn luoteesta
Lämpötila -15°C
Kosteus 55%
Ilmanpaine 1007 hPa
Näkyvyys 10 km tai enemmän

METAR: UHPP 191830Z 32005MPS 9999 NSC M15/M22 Q1007 R34L/CLRD70 NOSIG RMK QFE752/1002

Aika: 06:52 (18:52 UTC)

Sääennuste

Tämä raportti tehtiin 2 tuntia ja 6 minuuttia sitten, kello 16.46 UTC
Ennuste voimassa 19. päivästä klo 18 UTC - 20. päivään klo 24 UTC
Tuuli 6 kn pohjoisesta puuskistuen 19 kn:hen
Näkyvyys 10 km tai enemmän

TAF: UHPP 191646Z 1918/2024 35003G10MPS 9999 NSC TXM03/2004Z TNM20/1919Z

Säähavainnot ja -ennusteet yli 4000 lentoasemalta (METAR- ja TAF-raportit).

Käytössä olevat sääasemat on merkitty karttaan keltaisilla ja punaisilla pisteillä.

Aseta hiiri pisteen päälle nähdäksesi sääaseman nimen.

Klikkaa sitten nähdäksesi säähavainnot ja -ennusteet.

Kartan vaihtaminen: klikkaa mustalla rastilla varustettuja vihreitä pisteitä, niin voit zoomata sisään; viivalla varustettua vihreää pistettä, niin voit zoomata ulos tai vihreitä nuolia, niin pääset viereisille kartoille.


METAR-TAF: